createdAt,value
2019-03-13T18:20:35.687Z,94.90
2019-03-13T18:23:04.250Z,96.10
2019-03-13T18:25:32.732Z,96.30
2019-03-13T18:28:01.189Z,96.70
2019-03-13T18:30:33.173Z,96.90
2019-03-13T18:33:03.491Z,97.20
2019-03-13T18:35:31.933Z,97.30
2019-03-13T18:38:00.401Z,97.50
2019-03-13T18:40:28.884Z,97.50
2019-03-13T18:42:57.347Z,97.50
2019-03-13T18:45:34.002Z,97.60
2019-03-13T18:48:02.528Z,97.60
2019-03-13T18:50:30.989Z,97.60
2019-03-13T18:52:59.609Z,97.60
2019-03-13T18:55:29.340Z,97.60
2019-03-13T18:57:57.812Z,97.80
2019-03-13T19:00:33.412Z,97.70
2019-03-13T19:03:02.015Z,97.80
2019-03-13T19:05:32.090Z,98.00
2019-03-13T19:08:00.597Z,98.00
2019-03-13T19:10:31.263Z,98.30
2019-03-13T19:12:59.733Z,98.00
2019-03-13T19:15:28.368Z,98.10
2019-03-13T19:17:56.850Z,98.10
2019-03-13T19:20:26.418Z,98.20
2019-03-13T19:22:54.893Z,98.10
2019-03-13T19:25:23.365Z,98.20
2019-03-13T19:27:51.837Z,98.20
2019-03-13T19:30:26.226Z,98.40
2019-03-13T19:32:54.690Z,98.50
2019-03-13T19:35:23.157Z,98.60
2019-03-13T19:37:51.631Z,98.50
2019-03-13T19:40:22.412Z,98.50
2019-03-13T19:42:53.733Z,98.60
2019-03-13T19:45:40.177Z,98.60
2019-03-13T19:48:08.652Z,98.50
2019-03-13T19:50:37.117Z,98.50
2019-03-13T19:53:05.944Z,98.40
2019-03-13T19:55:34.410Z,98.30
2019-03-13T19:58:02.875Z,98.50
2019-03-13T20:00:31.366Z,98.50
2019-03-13T20:03:06.103Z,98.40
2019-03-13T20:05:44.764Z,98.40
2019-03-13T20:08:04.685Z,98.50
2019-03-13T20:10:33.292Z,98.50
2019-03-13T20:13:01.769Z,98.50
2019-03-13T20:15:35.193Z,98.60
2019-03-13T20:18:04.028Z,98.50
2019-03-13T20:20:32.503Z,98.70
2019-03-13T20:23:06.309Z,98.60
2019-03-13T20:25:37.751Z,98.70
2019-03-13T20:28:06.215Z,98.60
2019-03-13T20:30:34.909Z,98.60
2019-03-13T20:33:03.436Z,98.70
2019-03-13T20:35:32.020Z,98.80
2019-03-13T20:38:00.492Z,98.70
2019-03-13T20:40:28.965Z,98.70
2019-03-13T20:42:57.429Z,98.70
2019-03-13T20:45:27.927Z,98.60
2019-03-13T20:47:56.528Z,98.70
2019-03-13T20:50:35.803Z,98.70
2019-03-13T20:52:55.099Z,98.70
2019-03-13T20:55:23.935Z,98.70
2019-03-13T20:57:52.400Z,98.70
2019-03-13T21:00:24.963Z,98.70
2019-03-13T21:02:55.360Z,98.70
2019-03-13T21:05:24.006Z,98.80
2019-03-13T21:07:52.911Z,98.70
2019-03-13T21:10:21.544Z,98.80
2019-03-13T21:12:50.022Z,98.80
2019-03-13T21:15:21.113Z,98.80
2019-03-13T21:17:49.580Z,98.90
2019-03-13T21:20:18.327Z,98.80
2019-03-13T21:22:46.793Z,98.80
2019-03-13T21:25:16.936Z,98.80
2019-03-13T21:27:47.742Z,98.80
2019-03-13T21:30:23.713Z,98.80
2019-03-13T21:32:52.180Z,98.70
2019-03-13T21:35:20.638Z,98.70
2019-03-13T21:37:49.177Z,98.60
2019-03-13T21:40:19.112Z,98.80
2019-03-13T21:42:47.654Z,98.70
2019-03-13T21:45:22.573Z,98.70
2019-03-13T21:47:46.255Z,98.70
2019-03-13T21:50:16.852Z,98.60
2019-03-13T21:52:45.366Z,98.60
2019-03-13T21:55:14.956Z,98.60
2019-03-13T21:57:43.500Z,98.50
2019-03-13T22:00:24.154Z,98.50
2019-03-13T22:02:52.738Z,98.50
2019-03-13T22:05:26.104Z,98.50
2019-03-13T22:07:51.396Z,98.50
2019-03-13T22:10:20.231Z,98.50
2019-03-13T22:12:48.705Z,98.60
2019-03-13T22:15:20.859Z,98.60
2019-03-13T22:17:49.324Z,98.70
2019-03-13T22:20:18.267Z,98.70
2019-03-13T22:22:46.897Z,98.60
2019-03-13T22:25:16.553Z,98.80
2019-03-13T22:27:45.030Z,98.70
2019-03-13T22:30:18.356Z,98.80
2019-03-13T22:32:46.816Z,98.70
2019-03-13T22:35:15.289Z,98.60
2019-03-13T22:37:43.824Z,98.70
2019-03-13T22:40:17.123Z,98.70
2019-03-13T22:42:45.614Z,98.80
2019-03-13T22:45:19.081Z,98.80
2019-03-13T22:47:47.537Z,98.60
2019-03-13T22:50:20.153Z,98.60
2019-03-13T22:52:48.622Z,98.70
2019-03-13T22:55:17.089Z,98.80
2019-03-13T22:57:45.565Z,98.80
2019-03-13T23:00:36.089Z,98.90
2019-03-13T23:03:04.569Z,98.80
2019-03-13T23:05:32.964Z,98.90
2019-03-13T23:08:01.367Z,99.00
2019-03-13T23:10:33.752Z,98.90
2019-03-13T23:13:02.161Z,98.90
2019-03-13T23:15:30.592Z,99.00
2019-03-13T23:17:59.001Z,99.10
2019-03-13T23:20:27.392Z,99.00
2019-03-13T23:22:55.796Z,99.10
2019-03-13T23:25:24.205Z,99.00
2019-03-13T23:27:52.605Z,99.10
2019-03-13T23:30:20.995Z,99.00
2019-03-13T23:32:49.409Z,99.10
2019-03-13T23:35:17.804Z,99.10
2019-03-13T23:37:46.218Z,98.90
2019-03-13T23:40:14.608Z,98.80
2019-03-13T23:42:43.069Z,99.00
2019-03-13T23:45:11.568Z,99.00
2019-03-13T23:47:40.031Z,99.00
2019-03-13T23:50:10.252Z,99.00
2019-03-13T23:52:38.722Z,99.10
2019-03-13T23:55:07.685Z,98.90
2019-03-13T23:57:36.236Z,99.00
